sensor_id;sensor_type;location;lat;lon;timestamp;temperature;humidity
70807;DHT22;58882;52.170;5.386;2022-09-06T00:02:19;24.90;51.90
70807;DHT22;58882;52.170;5.386;2022-09-06T00:05:13;24.90;50.80
70807;DHT22;58882;52.170;5.386;2022-09-06T00:07:53;24.90;51.10
70807;DHT22;58882;52.170;5.386;2022-09-06T00:10:40;24.80;51.10
70807;DHT22;58882;52.170;5.386;2022-09-06T00:13:21;24.80;51.50
70807;DHT22;58882;52.170;5.386;2022-09-06T00:16:13;24.80;51.50
70807;DHT22;58882;52.170;5.386;2022-09-06T00:18:54;24.80;51.60
70807;DHT22;58882;52.170;5.386;2022-09-06T00:21:49;24.80;51.40
70807;DHT22;58882;52.170;5.386;2022-09-06T00:24:29;24.80;51.50
70807;DHT22;58882;52.170;5.386;2022-09-06T00:27:16;24.70;51.50
70807;DHT22;58882;52.170;5.386;2022-09-06T00:29:56;24.80;51.70
70807;DHT22;58882;52.170;5.386;2022-09-06T00:32:43;24.70;51.60
70807;DHT22;58882;52.170;5.386;2022-09-06T00:35:24;24.70;52.70
70807;DHT22;58882;52.170;5.386;2022-09-06T00:38:11;24.70;51.90
70807;DHT22;58882;52.170;5.386;2022-09-06T00:40:51;24.70;52.10
70807;DHT22;58882;52.170;5.386;2022-09-06T00:43:38;24.60;52.10
70807;DHT22;58882;52.170;5.386;2022-09-06T00:46:22;24.60;52.30
70807;DHT22;58882;52.170;5.386;2022-09-06T00:49:27;24.60;52.30
70807;DHT22;58882;52.170;5.386;2022-09-06T00:52:10;24.60;52.20
70807;DHT22;58882;52.170;5.386;2022-09-06T00:54:58;24.60;52.40
70807;DHT22;58882;52.170;5.386;2022-09-06T00:57:39;24.60;52.70
70807;DHT22;58882;52.170;5.386;2022-09-06T01:00:30;24.60;52.70
70807;DHT22;58882;52.170;5.386;2022-09-06T01:03:17;24.50;53.00
70807;DHT22;58882;52.170;5.386;2022-09-06T01:15:27;24.50;53.30
70807;DHT22;58882;52.170;5.386;2022-09-06T01:30:21;24.40;54.00
70807;DHT22;58882;52.170;5.386;2022-09-06T01:33:18;24.30;53.90
70807;DHT22;58882;52.170;5.386;2022-09-06T01:36:14;24.30;53.90
70807;DHT22;58882;52.170;5.386;2022-09-06T01:38:56;24.30;54.00
70807;DHT22;58882;52.170;5.386;2022-09-06T01:41:43;24.30;53.90
70807;DHT22;58882;52.170;5.386;2022-09-06T01:44:25;24.40;54.00
70807;DHT22;58882;52.170;5.386;2022-09-06T01:53:59;24.30;53.90
70807;DHT22;58882;52.170;5.386;2022-09-06T02:02:04;24.20;54.10
70807;DHT22;58882;52.170;5.386;2022-09-06T02:05:10;24.20;54.30
70807;DHT22;58882;52.170;5.386;2022-09-06T02:07:57;24.20;54.20
70807;DHT22;58882;52.170;5.386;2022-09-06T02:11:06;24.20;54.20
70807;DHT22;58882;52.170;5.386;2022-09-06T02:14:04;24.20;54.30
70807;DHT22;58882;52.170;5.386;2022-09-06T02:17:00;24.20;54.40
70807;DHT22;58882;52.170;5.386;2022-09-06T02:19:44;24.20;54.50
70807;DHT22;58882;52.170;5.386;2022-09-06T02:22:42;24.10;54.60
70807;DHT22;58882;52.170;5.386;2022-09-06T02:25:34;24.10;54.70
70807;DHT22;58882;52.170;5.386;2022-09-06T02:28:29;24.10;54.60
70807;DHT22;58882;52.170;5.386;2022-09-06T02:31:15;24.10;54.60
70807;DHT22;58882;52.170;5.386;2022-09-06T02:34:14;24.10;54.50
70807;DHT22;58882;52.170;5.386;2022-09-06T02:36:56;24.20;54.40
70807;DHT22;58882;52.170;5.386;2022-09-06T02:39:43;24.20;54.30
70807;DHT22;58882;52.170;5.386;2022-09-06T02:42:23;24.20;54.20
70807;DHT22;58882;52.170;5.386;2022-09-06T02:45:11;24.10;54.10
70807;DHT22;58882;52.170;5.386;2022-09-06T02:47:51;24.20;54.10
70807;DHT22;58882;52.170;5.386;2022-09-06T02:50:38;24.10;54.10
70807;DHT22;58882;52.170;5.386;2022-09-06T02:53:12;24.10;54.20
70807;DHT22;58882;52.170;5.386;2022-09-06T02:56:06;24.10;54.30
70807;DHT22;58882;52.170;5.386;2022-09-06T02:58:46;24.00;54.40
70807;DHT22;58882;52.170;5.386;2022-09-06T03:01:33;24.00;54.40
70807;DHT22;58882;52.170;5.386;2022-09-06T03:04:06;24.00;54.60
70807;DHT22;58882;52.170;5.386;2022-09-06T03:07:00;24.00;54.70
70807;DHT22;58882;52.170;5.386;2022-09-06T03:09:40;23.90;54.90
70807;DHT22;58882;52.170;5.386;2022-09-06T03:12:27;23.90;55.00
70807;DHT22;58882;52.170;5.386;2022-09-06T03:15:07;23.80;55.10
70807;DHT22;58882;52.170;5.386;2022-09-06T03:17:58;23.90;55.20
70807;DHT22;58882;52.170;5.386;2022-09-06T03:20:39;23.80;55.30
70807;DHT22;58882;52.170;5.386;2022-09-06T03:23:27;23.80;55.20
70807;DHT22;58882;52.170;5.386;2022-09-06T03:26:07;23.80;55.30
70807;DHT22;58882;52.170;5.386;2022-09-06T03:29:01;23.80;55.40
70807;DHT22;58882;52.170;5.386;2022-09-06T03:31:41;23.80;55.50
70807;DHT22;58882;52.170;5.386;2022-09-06T03:34:28;23.70;55.50
70807;DHT22;58882;52.170;5.386;2022-09-06T03:37:01;23.80;55.90
70807;DHT22;58882;52.170;5.386;2022-09-06T03:39:55;23.70;56.00
70807;DHT22;58882;52.170;5.386;2022-09-06T03:42:35;23.70;56.30
70807;DHT22;58882;52.170;5.386;2022-09-06T03:45:22;23.70;56.20
70807;DHT22;58882;52.170;5.386;2022-09-06T03:48:02;23.60;56.30
70807;DHT22;58882;52.170;5.386;2022-09-06T03:50:52;23.60;56.30
70807;DHT22;58882;52.170;5.386;2022-09-06T03:53:33;23.60;56.40
70807;DHT22;58882;52.170;5.386;2022-09-06T03:56:20;23.60;56.50
70807;DHT22;58882;52.170;5.386;2022-09-06T03:59:00;23.60;56.60
70807;DHT22;58882;52.170;5.386;2022-09-06T04:01:47;23.50;56.60
70807;DHT22;58882;52.170;5.386;2022-09-06T04:04:34;23.50;56.70
70807;DHT22;58882;52.170;5.386;2022-09-06T04:07:14;23.50;56.90
70807;DHT22;58882;52.170;5.386;2022-09-06T04:10:01;23.50;56.90
70807;DHT22;58882;52.170;5.386;2022-09-06T04:12:43;23.40;56.90
70807;DHT22;58882;52.170;5.386;2022-09-06T04:15:30;23.40;56.90
70807;DHT22;58882;52.170;5.386;2022-09-06T04:18:10;23.40;57.00
70807;DHT22;58882;52.170;5.386;2022-09-06T04:20:57;23.40;57.00
70807;DHT22;58882;52.170;5.386;2022-09-06T04:23:37;23.40;58.10
70807;DHT22;58882;52.170;5.386;2022-09-06T04:26:24;23.40;57.00
70807;DHT22;58882;52.170;5.386;2022-09-06T04:29:04;23.30;57.10
70807;DHT22;58882;52.170;5.386;2022-09-06T04:31:51;23.30;57.00
70807;DHT22;58882;52.170;5.386;2022-09-06T04:34:31;23.30;57.10
70807;DHT22;58882;52.170;5.386;2022-09-06T04:37:25;23.30;57.00
70807;DHT22;58882;52.170;5.386;2022-09-06T04:40:05;23.30;57.00
70807;DHT22;58882;52.170;5.386;2022-09-06T04:42:53;23.30;57.00
70807;DHT22;58882;52.170;5.386;2022-09-06T04:45:33;23.30;56.90
70807;DHT22;58882;52.170;5.386;2022-09-06T04:48:20;23.30;56.70
70807;DHT22;58882;52.170;5.386;2022-09-06T04:51:00;23.40;56.70
70807;DHT22;58882;52.170;5.386;2022-09-06T04:53:47;23.40;56.50
70807;DHT22;58882;52.170;5.386;2022-09-06T04:56:27;23.50;56.30
70807;DHT22;58882;52.170;5.386;2022-09-06T04:59:14;23.50;56.10
70807;DHT22;58882;52.170;5.386;2022-09-06T05:01:47;23.60;56.10
70807;DHT22;58882;52.170;5.386;2022-09-06T05:04:41;23.60;56.00
70807;DHT22;58882;52.170;5.386;2022-09-06T05:07:21;23.60;55.90
70807;DHT22;58882;52.170;5.386;2022-09-06T05:10:08;23.60;55.80
70807;DHT22;58882;52.170;5.386;2022-09-06T05:12:52;23.60;55.60
70807;DHT22;58882;52.170;5.386;2022-09-06T05:15:40;23.60;55.40
70807;DHT22;58882;52.170;5.386;2022-09-06T05:18:20;23.70;55.40
70807;DHT22;58882;52.170;5.386;2022-09-06T05:21:07;23.70;56.30
70807;DHT22;58882;52.170;5.386;2022-09-06T05:23:47;23.80;55.20
70807;DHT22;58882;52.170;5.386;2022-09-06T05:26:37;23.80;55.10
70807;DHT22;58882;52.170;5.386;2022-09-06T05:29:17;23.80;55.00
70807;DHT22;58882;52.170;5.386;2022-09-06T05:32:09;23.80;55.10
70807;DHT22;58882;52.170;5.386;2022-09-06T05:34:49;23.80;55.00
70807;DHT22;58882;52.170;5.386;2022-09-06T05:37:36;23.70;55.00
70807;DHT22;58882;52.170;5.386;2022-09-06T05:40:16;23.70;55.10
70807;DHT22;58882;52.170;5.386;2022-09-06T05:43:03;23.70;55.20
70807;DHT22;58882;52.170;5.386;2022-09-06T05:45:43;23.60;55.30
70807;DHT22;58882;52.170;5.386;2022-09-06T05:48:30;23.60;55.40
70807;DHT22;58882;52.170;5.386;2022-09-06T05:51:11;23.60;55.60
70807;DHT22;58882;52.170;5.386;2022-09-06T05:54:06;23.50;55.60
70807;DHT22;58882;52.170;5.386;2022-09-06T05:56:46;23.50;55.60
70807;DHT22;58882;52.170;5.386;2022-09-06T05:59:33;23.50;55.70
70807;DHT22;58882;52.170;5.386;2022-09-06T06:02:21;23.50;55.80
70807;DHT22;58882;52.170;5.386;2022-09-06T06:05:15;23.40;55.80
70807;DHT22;58882;52.170;5.386;2022-09-06T06:07:55;23.40;55.90
70807;DHT22;58882;52.170;5.386;2022-09-06T06:10:49;23.50;55.90
70807;DHT22;58882;52.170;5.386;2022-09-06T06:13:22;23.50;55.90
70807;DHT22;58882;52.170;5.386;2022-09-06T06:16:19;23.50;55.90
70807;DHT22;58882;52.170;5.386;2022-09-06T06:18:52;23.50;55.90
70807;DHT22;58882;52.170;5.386;2022-09-06T06:21:46;23.50;55.80
70807;DHT22;58882;52.170;5.386;2022-09-06T06:24:27;23.50;55.80
70807;DHT22;58882;52.170;5.386;2022-09-06T06:27:14;23.60;55.80
70807;DHT22;58882;52.170;5.386;2022-09-06T06:29:54;23.60;56.00
70807;DHT22;58882;52.170;5.386;2022-09-06T06:32:41;23.60;55.90
70807;DHT22;58882;52.170;5.386;2022-09-06T06:35:14;23.70;55.80
70807;DHT22;58882;52.170;5.386;2022-09-06T06:38:08;23.80;55.70
70807;DHT22;58882;52.170;5.386;2022-09-06T06:40:48;23.90;55.30
70807;DHT22;58882;52.170;5.386;2022-09-06T06:43:46;24.00;54.90
70807;DHT22;58882;52.170;5.386;2022-09-06T06:46:28;24.20;54.60
70807;DHT22;58882;52.170;5.386;2022-09-06T06:49:23;24.30;54.40
70807;DHT22;58882;52.170;5.386;2022-09-06T06:52:03;24.50;54.20
70807;DHT22;58882;52.170;5.386;2022-09-06T06:54:50;24.70;53.90
70807;DHT22;58882;52.170;5.386;2022-09-06T06:57:30;24.90;53.40
70807;DHT22;58882;52.170;5.386;2022-09-06T07:00:17;25.20;53.00
70807;DHT22;58882;52.170;5.386;2022-09-06T07:03:08;25.50;52.50
70807;DHT22;58882;52.170;5.386;2022-09-06T07:06:03;25.80;52.00
70807;DHT22;58882;52.170;5.386;2022-09-06T07:08:45;26.10;51.20
70807;DHT22;58882;52.170;5.386;2022-09-06T07:11:39;26.40;50.50
70807;DHT22;58882;52.170;5.386;2022-09-06T07:14:19;26.70;49.50
70807;DHT22;58882;52.170;5.386;2022-09-06T07:17:13;27.00;48.70
70807;DHT22;58882;52.170;5.386;2022-09-06T07:19:53;27.30;47.90
70807;DHT22;58882;52.170;5.386;2022-09-06T07:23:03;27.60;47.10
70807;DHT22;58882;52.170;5.386;2022-09-06T07:26:03;27.80;46.50
70807;DHT22;58882;52.170;5.386;2022-09-06T07:28:55;28.10;46.00
70807;DHT22;58882;52.170;5.386;2022-09-06T07:31:49;28.20;45.40
70807;DHT22;58882;52.170;5.386;2022-09-06T07:34:45;28.40;44.90
70807;DHT22;58882;52.170;5.386;2022-09-06T07:37:32;28.60;44.50
70807;DHT22;58882;52.170;5.386;2022-09-06T07:40:12;28.70;43.90
70807;DHT22;58882;52.170;5.386;2022-09-06T07:42:59;28.90;43.70
70807;DHT22;58882;52.170;5.386;2022-09-06T07:45:39;29.10;43.10
70807;DHT22;58882;52.170;5.386;2022-09-06T07:48:30;29.20;42.70
70807;DHT22;58882;52.170;5.386;2022-09-06T07:51:18;29.40;42.30
70807;DHT22;58882;52.170;5.386;2022-09-06T07:54:13;29.60;41.80
70807;DHT22;58882;52.170;5.386;2022-09-06T07:57:08;29.70;41.30
70807;DHT22;58882;52.170;5.386;2022-09-06T07:59:55;30.00;42.00
70807;DHT22;58882;52.170;5.386;2022-09-06T08:02:37;30.00;40.50
70807;DHT22;58882;52.170;5.386;2022-09-06T08:05:31;30.20;40.20
70807;DHT22;58882;52.170;5.386;2022-09-06T08:08:31;30.30;40.00
70807;DHT22;58882;52.170;5.386;2022-09-06T08:11:38;30.40;39.50
70807;DHT22;58882;52.170;5.386;2022-09-06T08:14:18;30.50;39.20
70807;DHT22;58882;52.170;5.386;2022-09-06T08:17:05;30.70;38.90
70807;DHT22;58882;52.170;5.386;2022-09-06T08:19:45;30.70;38.50
70807;DHT22;58882;52.170;5.386;2022-09-06T08:22:32;30.80;38.40
70807;DHT22;58882;52.170;5.386;2022-09-06T08:25:12;30.90;38.10
70807;DHT22;58882;52.170;5.386;2022-09-06T08:27:59;31.00;37.80
70807;DHT22;58882;52.170;5.386;2022-09-06T08:30:39;31.10;37.70
70807;DHT22;58882;52.170;5.386;2022-09-06T08:33:33;31.20;37.40
70807;DHT22;58882;52.170;5.386;2022-09-06T08:36:14;31.20;37.10
70807;DHT22;58882;52.170;5.386;2022-09-06T08:39:04;31.40;37.00
70807;DHT22;58882;52.170;5.386;2022-09-06T08:42:00;31.40;36.70
70807;DHT22;58882;52.170;5.386;2022-09-06T08:44:52;31.50;36.50
70807;DHT22;58882;52.170;5.386;2022-09-06T08:47:34;31.50;36.40
70807;DHT22;58882;52.170;5.386;2022-09-06T08:50:21;31.60;36.20
70807;DHT22;58882;52.170;5.386;2022-09-06T08:53:15;31.60;36.00
70807;DHT22;58882;52.170;5.386;2022-09-06T08:56:21;31.70;35.90
70807;DHT22;58882;52.170;5.386;2022-09-06T08:59:13;31.70;35.90
70807;DHT22;58882;52.170;5.386;2022-09-06T09:02:12;31.80;35.60
70807;DHT22;58882;52.170;5.386;2022-09-06T09:04:54;31.80;35.50
70807;DHT22;58882;52.170;5.386;2022-09-06T09:11:22;31.90;35.20
70807;DHT22;58882;52.170;5.386;2022-09-06T09:14:10;31.90;35.20
70807;DHT22;58882;52.170;5.386;2022-09-06T09:17:04;32.00;35.10
70807;DHT22;58882;52.170;5.386;2022-09-06T09:19:45;32.00;35.10
70807;DHT22;58882;52.170;5.386;2022-09-06T09:22:39;32.00;34.90
70807;DHT22;58882;52.170;5.386;2022-09-06T09:25:22;32.00;34.90
70807;DHT22;58882;52.170;5.386;2022-09-06T09:28:15;32.00;34.80
70807;DHT22;58882;52.170;5.386;2022-09-06T09:30:56;32.00;34.80
70807;DHT22;58882;52.170;5.386;2022-09-06T09:33:50;32.10;34.80
70807;DHT22;58882;52.170;5.386;2022-09-06T09:36:24;32.10;34.70
70807;DHT22;58882;52.170;5.386;2022-09-06T09:39:18;32.10;34.60
70807;DHT22;58882;52.170;5.386;2022-09-06T09:41:58;32.10;34.60
70807;DHT22;58882;52.170;5.386;2022-09-06T09:44:45;32.20;34.50
70807;DHT22;58882;52.170;5.386;2022-09-06T09:47:30;32.10;34.50
70807;DHT22;58882;52.170;5.386;2022-09-06T09:50:35;32.10;34.30
70807;DHT22;58882;52.170;5.386;2022-09-06T09:53:18;32.10;34.50
70807;DHT22;58882;52.170;5.386;2022-09-06T09:56:05;32.10;34.30
70807;DHT22;58882;52.170;5.386;2022-09-06T09:58:45;32.10;34.40
70807;DHT22;58882;52.170;5.386;2022-09-06T10:01:33;32.00;34.50
70807;DHT22;58882;52.170;5.386;2022-09-06T10:04:26;31.90;34.60
70807;DHT22;58882;52.170;5.386;2022-09-06T10:07:26;31.90;34.70
70807;DHT22;58882;52.170;5.386;2022-09-06T10:10:11;31.90;34.60
70807;DHT22;58882;52.170;5.386;2022-09-06T10:13:13;31.90;34.60
70807;DHT22;58882;52.170;5.386;2022-09-06T10:15:58;31.90;34.60
70807;DHT22;58882;52.170;5.386;2022-09-06T10:18:46;31.90;34.50
70807;DHT22;58882;52.170;5.386;2022-09-06T10:21:31;31.90;35.50
70807;DHT22;58882;52.170;5.386;2022-09-06T10:24:37;31.90;34.60
70807;DHT22;58882;52.170;5.386;2022-09-06T10:27:26;32.00;34.80
70807;DHT22;58882;52.170;5.386;2022-09-06T10:30:11;32.00;34.60
70807;DHT22;58882;52.170;5.386;2022-09-06T10:33:25;31.90;34.60
70807;DHT22;58882;52.170;5.386;2022-09-06T10:39:53;31.80;34.70
70807;DHT22;58882;52.170;5.386;2022-09-06T10:42:49;31.80;34.80
70807;DHT22;58882;52.170;5.386;2022-09-06T10:48:44;31.60;34.90
70807;DHT22;58882;52.170;5.386;2022-09-06T10:54:18;31.50;36.10
70807;DHT22;58882;52.170;5.386;2022-09-06T10:57:08;31.30;35.30
70807;DHT22;58882;52.170;5.386;2022-09-06T11:00:22;31.20;35.50
70807;DHT22;58882;52.170;5.386;2022-09-06T11:03:04;31.10;35.50
70807;DHT22;58882;52.170;5.386;2022-09-06T11:06:21;31.20;35.60
70807;DHT22;58882;52.170;5.386;2022-09-06T11:09:28;31.20;35.50
70807;DHT22;58882;52.170;5.386;2022-09-06T11:12:23;31.10;35.60
70807;DHT22;58882;52.170;5.386;2022-09-06T11:15:11;31.10;35.60
70807;DHT22;58882;52.170;5.386;2022-09-06T11:30:14;30.90;35.80
70807;DHT22;58882;52.170;5.386;2022-09-06T11:33:22;30.80;36.00
70807;DHT22;58882;52.170;5.386;2022-09-06T11:39:30;30.70;36.20
70807;DHT22;58882;52.170;5.386;2022-09-06T11:45:48;30.50;36.80
70807;DHT22;58882;52.170;5.386;2022-09-06T11:49:02;30.50;36.70
70807;DHT22;58882;52.170;5.386;2022-09-06T11:51:44;30.50;36.90
70807;DHT22;58882;52.170;5.386;2022-09-06T11:54:40;30.50;36.70
70807;DHT22;58882;52.170;5.386;2022-09-06T11:57:22;30.40;37.00
70807;DHT22;58882;52.170;5.386;2022-09-06T12:00:18;30.50;36.70
70807;DHT22;58882;52.170;5.386;2022-09-06T12:02:52;30.40;36.80
70807;DHT22;58882;52.170;5.386;2022-09-06T12:08:58;30.40;37.00
70807;DHT22;58882;52.170;5.386;2022-09-06T12:11:46;30.40;37.00
70807;DHT22;58882;52.170;5.386;2022-09-06T12:17:23;30.30;37.20
70807;DHT22;58882;52.170;5.386;2022-09-06T12:20:04;30.20;37.30
70807;DHT22;58882;52.170;5.386;2022-09-06T12:22:58;30.20;37.40
70807;DHT22;58882;52.170;5.386;2022-09-06T12:28:48;30.10;37.60
70807;DHT22;58882;52.170;5.386;2022-09-06T12:31:57;30.10;37.80
70807;DHT22;58882;52.170;5.386;2022-09-06T12:34:46;30.00;37.80
70807;DHT22;58882;52.170;5.386;2022-09-06T12:37:57;30.00;37.80
70807;DHT22;58882;52.170;5.386;2022-09-06T12:40:47;29.90;37.90
70807;DHT22;58882;52.170;5.386;2022-09-06T12:43:30;29.90;38.00
70807;DHT22;58882;52.170;5.386;2022-09-06T12:46:17;29.90;38.10
70807;DHT22;58882;52.170;5.386;2022-09-06T12:49:08;29.80;38.30
70807;DHT22;58882;52.170;5.386;2022-09-06T12:52:10;29.80;38.40
70807;DHT22;58882;52.170;5.386;2022-09-06T12:54:51;29.70;38.50
70807;DHT22;58882;52.170;5.386;2022-09-06T12:57:46;29.70;38.60
70807;DHT22;58882;52.170;5.386;2022-09-06T13:00:35;29.60;38.60
70807;DHT22;58882;52.170;5.386;2022-09-06T13:06:41;29.60;38.80
70807;DHT22;58882;52.170;5.386;2022-09-06T13:09:23;29.50;38.80
70807;DHT22;58882;52.170;5.386;2022-09-06T13:12:37;29.40;38.90
70807;DHT22;58882;52.170;5.386;2022-09-06T13:18:33;29.30;39.00
70807;DHT22;58882;52.170;5.386;2022-09-06T13:21:25;29.30;39.30
70807;DHT22;58882;52.170;5.386;2022-09-06T13:24:22;29.30;39.40
70807;DHT22;58882;52.170;5.386;2022-09-06T13:27:23;29.20;39.50
70807;DHT22;58882;52.170;5.386;2022-09-06T13:30:39;29.10;39.50
70807;DHT22;58882;52.170;5.386;2022-09-06T13:33:25;29.10;39.60
70807;DHT22;58882;52.170;5.386;2022-09-06T13:38:52;29.00;39.80
70807;DHT22;58882;52.170;5.386;2022-09-06T13:41:42;28.90;39.80
70807;DHT22;58882;52.170;5.386;2022-09-06T13:44:31;28.90;39.90
70807;DHT22;58882;52.170;5.386;2022-09-06T13:47:18;28.80;39.80
70807;DHT22;58882;52.170;5.386;2022-09-06T13:49:58;28.80;39.90
70807;DHT22;58882;52.170;5.386;2022-09-06T13:52:45;28.80;40.00
70807;DHT22;58882;52.170;5.386;2022-09-06T13:55:40;28.70;40.00
70807;DHT22;58882;52.170;5.386;2022-09-06T13:58:35;28.70;40.10
70807;DHT22;58882;52.170;5.386;2022-09-06T14:01:15;28.60;40.20
70807;DHT22;58882;52.170;5.386;2022-09-06T14:04:02;28.60;40.20
70807;DHT22;58882;52.170;5.386;2022-09-06T14:06:43;28.60;40.30
70807;DHT22;58882;52.170;5.386;2022-09-06T14:09:30;28.50;40.30
70807;DHT22;58882;52.170;5.386;2022-09-06T14:12:10;28.50;40.40
70807;DHT22;58882;52.170;5.386;2022-09-06T14:14:57;28.50;40.50
70807;DHT22;58882;52.170;5.386;2022-09-06T14:17:37;28.40;40.50
70807;DHT22;58882;52.170;5.386;2022-09-06T14:20:25;28.40;40.60
70807;DHT22;58882;52.170;5.386;2022-09-06T14:23:06;28.40;40.70
70807;DHT22;58882;52.170;5.386;2022-09-06T14:26:02;28.40;40.70
70807;DHT22;58882;52.170;5.386;2022-09-06T14:28:42;28.40;40.90
70807;DHT22;58882;52.170;5.386;2022-09-06T14:31:29;28.40;40.90
70807;DHT22;58882;52.170;5.386;2022-09-06T14:34:04;28.30;41.00
70807;DHT22;58882;52.170;5.386;2022-09-06T14:36:58;28.30;40.90
70807;DHT22;58882;52.170;5.386;2022-09-06T14:39:43;28.30;41.00
70807;DHT22;58882;52.170;5.386;2022-09-06T14:42:30;28.20;41.00
70807;DHT22;58882;52.170;5.386;2022-09-06T14:45:10;28.20;41.10
70807;DHT22;58882;52.170;5.386;2022-09-06T14:47:57;28.20;41.10
70807;DHT22;58882;52.170;5.386;2022-09-06T14:50:30;28.20;41.10
70807;DHT22;58882;52.170;5.386;2022-09-06T14:53:24;28.20;41.20
70807;DHT22;58882;52.170;5.386;2022-09-06T14:56:12;28.20;41.10
70807;DHT22;58882;52.170;5.386;2022-09-06T14:59:07;28.20;41.10
70807;DHT22;58882;52.170;5.386;2022-09-06T15:01:41;28.10;41.10
70807;DHT22;58882;52.170;5.386;2022-09-06T15:04:35;28.10;41.10
70807;DHT22;58882;52.170;5.386;2022-09-06T15:07:29;28.10;41.10
70807;DHT22;58882;52.170;5.386;2022-09-06T15:10:10;28.10;41.10
70807;DHT22;58882;52.170;5.386;2022-09-06T15:13:00;28.10;41.10
70807;DHT22;58882;52.170;5.386;2022-09-06T15:15:40;28.00;41.20
70807;DHT22;58882;52.170;5.386;2022-09-06T15:18:27;28.00;41.20
70807;DHT22;58882;52.170;5.386;2022-09-06T15:21:12;28.00;41.20
70807;DHT22;58882;52.170;5.386;2022-09-06T15:23:59;28.00;41.20
70807;DHT22;58882;52.170;5.386;2022-09-06T15:26:44;27.90;41.20
70807;DHT22;58882;52.170;5.386;2022-09-06T15:29:31;27.90;41.30
70807;DHT22;58882;52.170;5.386;2022-09-06T15:32:11;27.90;41.40
70807;DHT22;58882;52.170;5.386;2022-09-06T15:34:58;27.90;41.40
70807;DHT22;58882;52.170;5.386;2022-09-06T15:37:39;27.80;41.40
70807;DHT22;58882;52.170;5.386;2022-09-06T15:40:26;27.80;41.40
70807;DHT22;58882;52.170;5.386;2022-09-06T15:43:06;27.80;41.50
70807;DHT22;58882;52.170;5.386;2022-09-06T15:46:00;27.80;41.50
70807;DHT22;58882;52.170;5.386;2022-09-06T15:48:54;27.80;41.60
70807;DHT22;58882;52.170;5.386;2022-09-06T15:51:38;27.70;41.50
70807;DHT22;58882;52.170;5.386;2022-09-06T15:54:26;27.70;41.60
70807;DHT22;58882;52.170;5.386;2022-09-06T15:57:25;27.70;41.60
70807;DHT22;58882;52.170;5.386;2022-09-06T16:00:19;27.70;41.60
70807;DHT22;58882;52.170;5.386;2022-09-06T16:02:59;27.70;41.70
70807;DHT22;58882;52.170;5.386;2022-09-06T16:05:46;27.70;41.70
70807;DHT22;58882;52.170;5.386;2022-09-06T16:08:47;27.70;41.80
70807;DHT22;58882;52.170;5.386;2022-09-06T16:11:35;27.70;41.80
70807;DHT22;58882;52.170;5.386;2022-09-06T16:14:15;27.70;41.90
70807;DHT22;58882;52.170;5.386;2022-09-06T16:17:03;27.60;42.10
70807;DHT22;58882;52.170;5.386;2022-09-06T16:19:36;27.60;42.90
70807;DHT22;58882;52.170;5.386;2022-09-06T16:22:31;27.60;41.90
70807;DHT22;58882;52.170;5.386;2022-09-06T16:25:11;27.60;41.90
70807;DHT22;58882;52.170;5.386;2022-09-06T16:27:58;27.60;42.00
70807;DHT22;58882;52.170;5.386;2022-09-06T16:30:42;27.60;42.10
70807;DHT22;58882;52.170;5.386;2022-09-06T16:33:30;27.60;42.10
70807;DHT22;58882;52.170;5.386;2022-09-06T16:36:11;27.60;42.10
70807;DHT22;58882;52.170;5.386;2022-09-06T16:38:58;27.60;42.20
70807;DHT22;58882;52.170;5.386;2022-09-06T16:41:43;27.60;42.30
70807;DHT22;58882;52.170;5.386;2022-09-06T16:44:30;27.60;42.30
70807;DHT22;58882;52.170;5.386;2022-09-06T16:47:10;27.60;42.30
70807;DHT22;58882;52.170;5.386;2022-09-06T16:50:04;27.60;42.50
70807;DHT22;58882;52.170;5.386;2022-09-06T16:52:44;27.60;42.70
70807;DHT22;58882;52.170;5.386;2022-09-06T16:55:35;27.60;42.80
70807;DHT22;58882;52.170;5.386;2022-09-06T16:58:16;27.50;42.80
70807;DHT22;58882;52.170;5.386;2022-09-06T17:01:03;27.50;42.80
70807;DHT22;58882;52.170;5.386;2022-09-06T17:03:50;27.60;42.90
70807;DHT22;58882;52.170;5.386;2022-09-06T17:06:31;27.60;42.90
70807;DHT22;58882;52.170;5.386;2022-09-06T17:09:19;27.60;42.90
70807;DHT22;58882;52.170;5.386;2022-09-06T17:11:59;27.50;43.00
70807;DHT22;58882;52.170;5.386;2022-09-06T17:14:46;27.50;43.00
70807;DHT22;58882;52.170;5.386;2022-09-06T17:17:26;27.50;43.10
70807;DHT22;58882;52.170;5.386;2022-09-06T17:20:13;27.50;43.10
70807;DHT22;58882;52.170;5.386;2022-09-06T17:22:53;27.50;43.10
70807;DHT22;58882;52.170;5.386;2022-09-06T17:25:41;27.50;43.10
70807;DHT22;58882;52.170;5.386;2022-09-06T17:28:15;27.50;43.20
70807;DHT22;58882;52.170;5.386;2022-09-06T17:31:09;27.50;43.10
70807;DHT22;58882;52.170;5.386;2022-09-06T17:33:54;27.50;43.20
70807;DHT22;58882;52.170;5.386;2022-09-06T17:36:41;27.40;43.10
70807;DHT22;58882;52.170;5.386;2022-09-06T17:39:21;27.40;43.10
70807;DHT22;58882;52.170;5.386;2022-09-06T17:42:08;27.40;43.20
70807;DHT22;58882;52.170;5.386;2022-09-06T17:44:48;27.40;43.20
70807;DHT22;58882;52.170;5.386;2022-09-06T17:47:42;27.40;43.20
70807;DHT22;58882;52.170;5.386;2022-09-06T17:50:15;27.40;43.20
70807;DHT22;58882;52.170;5.386;2022-09-06T17:53:09;27.40;43.30
70807;DHT22;58882;52.170;5.386;2022-09-06T17:55:42;27.40;43.40
70807;DHT22;58882;52.170;5.386;2022-09-06T17:58:38;27.40;43.40
70807;DHT22;58882;52.170;5.386;2022-09-06T18:01:13;27.40;43.30
70807;DHT22;58882;52.170;5.386;2022-09-06T18:04:08;27.40;43.40
70807;DHT22;58882;52.170;5.386;2022-09-06T18:07:03;27.30;43.30
70807;DHT22;58882;52.170;5.386;2022-09-06T18:09:36;27.30;43.40
70807;DHT22;58882;52.170;5.386;2022-09-06T18:12:30;27.30;43.40
70807;DHT22;58882;52.170;5.386;2022-09-06T18:15:10;27.30;43.40
70807;DHT22;58882;52.170;5.386;2022-09-06T18:17:57;27.30;43.50
70807;DHT22;58882;52.170;5.386;2022-09-06T18:20:37;27.30;43.40
70807;DHT22;58882;52.170;5.386;2022-09-06T18:23:24;27.30;43.40
70807;DHT22;58882;52.170;5.386;2022-09-06T18:26:06;27.30;43.40
70807;DHT22;58882;52.170;5.386;2022-09-06T18:28:54;27.30;43.40
70807;DHT22;58882;52.170;5.386;2022-09-06T18:31:34;27.30;43.50
70807;DHT22;58882;52.170;5.386;2022-09-06T18:34:21;27.30;43.50
70807;DHT22;58882;52.170;5.386;2022-09-06T18:37:01;27.20;43.50
70807;DHT22;58882;52.170;5.386;2022-09-06T18:39:55;27.20;43.50
70807;DHT22;58882;52.170;5.386;2022-09-06T18:42:35;27.20;43.60
70807;DHT22;58882;52.170;5.386;2022-09-06T18:45:22;27.20;43.60
70807;DHT22;58882;52.170;5.386;2022-09-06T18:48:02;27.20;43.60
70807;DHT22;58882;52.170;5.386;2022-09-06T18:50:49;27.20;43.50
70807;DHT22;58882;52.170;5.386;2022-09-06T18:53:32;27.20;43.50
70807;DHT22;58882;52.170;5.386;2022-09-06T18:56:27;27.20;43.50
70807;DHT22;58882;52.170;5.386;2022-09-06T18:59:07;27.20;43.50
70807;DHT22;58882;52.170;5.386;2022-09-06T19:01:54;27.20;43.50